• Join FlightAware (Why Join?)
  • Login
  • US Flag 
04:22AM EDT


 

Airport Tracker/Info


-or-


 

Live Flight TrackerFlight Track Log ✈ FLG3733 ✈ 12-May-2013 ✈ KALB - KDTW

Flight Track Log - Related Links

Times and Time Zones

All times are in EDT time to prevent confusion due to time zone crossing. See the FLG3733 flight status page for this flight to view local times or setup timezone preferences in your user account.

Time Position Orientation Groundspeed Altitude Reporting Facility
EDT Latitude Longitude Course Direction KTS MPH feet Rate Location/Type
04:36PM 42.7819 -73.8092 350° North 161 185 2,000  Level Boston Center
04:37PM 42.8311 -73.8642 321° Northwest 207 238 4,700 2,520 Climbing Boston Center
04:38PM 42.8063 -74.1439 281° West  Level FlightAware Approximate
04:38PM 42.8828 -73.9192 322° Northwest 222 255 7,500  Level Boston Center
04:39PM 42.8233 -74.2628 281° West  Level FlightAware Approximate
04:39PM 42.9319 -73.9714 322° Northwest 237 273 10,100  Level Boston Center
04:40PM 42.8414 -74.3815 283° West  Level FlightAware Approximate
04:40PM 42.9997 -74.0411 323° Northwest 270 311 11,900  Level Boston Center
04:41PM 42.8611 -74.4997 283° West  Level FlightAware Approximate
04:41PM 43.0656 -74.1083 323° Northwest 307 353 13,300  Level Boston Center
04:42PM 43.1222 -74.2153 306° West 322 371 14,700 1,620 Climbing Boston Center
04:43PM 43.1186 -74.3175 267° West 298 343 16,600 1,620 Climbing Boston Center
04:44PM 43.1206 -74.4511 271° West 316 364 18,000 1,320 Climbing Boston Center
04:45PM 43.1244 -74.5681 273° West 330 380 19,300 1,500 Climbing Boston Center
04:46PM 43.1283 -74.6961 272° West 335 386 21,100 1,800 Climbing Boston Center
04:47PM 43.1300 -74.8186 271° West 335 386 23,000 1,800 Climbing Boston Center
04:48PM 43.1358 -74.9383 274° West 328 377 24,700 1,500 Climbing Boston Center
04:49PM 43.1372 -75.0578 271° West 323 372 26,100 1,260 Climbing Boston Center
04:50PM 43.1386 -75.1747 271° West 318 366 27,300 900 Climbing Boston Center
04:51PM 43.1442 -75.2944 274° West 318 366 28,000 300 Climbing Boston Center
04:52PM 43.1475 -75.4111 272° West 313 360 28,000  Level Boston Center
04:53PM 43.1483 -75.5308 271° West 313 360 28,000  Level Boston Center
04:54PM 43.1514 -75.6450 272° West 307 353 28,000  Level Boston Center
04:55PM 43.1544 -75.7647 272° West 312 359 28,000  Level Boston Center
04:56PM 43.1550 -75.8842 270° West 312 359 28,000  Level Boston Center
04:57PM 43.1575 -76.0067 272° West 312 359 28,000  Level Boston Center
04:58PM 43.1586 -76.1036 271° West 317 365 28,000  Level Boston Center
05:00PM 43.1464 -76.3742 267° West 314 361 28,000  Level Cleveland Center
05:01PM 43.1361 -76.4944 263° West 314 361 28,000  Level Cleveland Center
05:02PM 43.1258 -76.6119 263° West 314 361 28,000  Level Cleveland Center
05:03PM 43.1131 -76.7322 262° West 314 361 28,000  Level Cleveland Center
05:04PM 43.1044 -76.8494 264° West 314 361 28,000  Level Cleveland Center
05:06PM 43.0828 -77.0894 263° West 314 361 28,000  Level Cleveland Center
05:07PM 43.0697 -77.2097 262° West 314 361 28,000  Level Cleveland Center
05:08PM 43.0606 -77.3267 264° West 314 361 28,000  Level Cleveland Center
05:09PM 43.0469 -77.4381 261° West 319 367 28,000  Level Cleveland Center
05:10PM 43.0375 -77.5581 264° West 319 367 28,000  Level Cleveland Center
05:11PM 43.0261 -77.6806 263° West 319 367 28,000  Level Cleveland Center
05:12PM 43.0144 -77.8033 263° West 324 373 28,000  Level Cleveland Center
05:13PM 43.0028 -77.9231 262° West 324 373 28,000  Level Cleveland Center
05:14PM 42.9911 -78.0486 263° West 330 380 28,000  Level Cleveland Center
05:15PM 42.9769 -78.1711 261° West 330 380 28,000  Level Cleveland Center
05:16PM 42.9669 -78.2936 264° West 330 380 28,000  Level Cleveland Center
05:17PM 42.9547 -78.4161 262° West 335 386 28,000  Level Cleveland Center
05:18PM 42.9403 -78.5383 261° West 335 386 28,000  Level Cleveland Center
05:19PM 42.9278 -78.6636 262° West 335 386 28,000  Level Cleveland Center
05:20PM 42.9111 -78.7861 260° West 335 386 28,000  Level Cleveland Center
05:21PM 42.8919 -78.9114 258° West 335 386 28,000  Level Cleveland Center
05:22PM 42.8731 -79.0364 258° West 335 386 28,000  Level Cleveland Center
05:23PM 42.8558 -79.1586 259° West 335 386 28,000  Level Cleveland Center
05:24PM 42.8406 -79.2808 260° West 335 386 28,000  Level Cleveland Center
05:25PM 42.8189 -79.4086 257° West 335 386 28,000  Level Cleveland Center
05:26PM 42.8014 -79.5306 259° West 335 386 28,000  Level Cleveland Center
05:27PM 42.7858 -79.6553 260° West 335 386 28,000  Level Cleveland Center
05:28PM 42.7639 -79.7800 257° West 335 386 28,000  Level Cleveland Center
05:29PM 42.7522 -79.9047 263° West 335 386 28,000  Level Cleveland Center
05:30PM 42.7425 -80.0517 265° West 340 391 28,000  Level Cleveland Center
05:31PM 42.7389 -80.1761 268° West 347 399 28,000  Level Cleveland Center
05:32PM 42.7308 -80.3033 265° West 347 399 28,000  Level Cleveland Center
05:33PM 42.7269 -80.4250 268° West 347 399 28,000  Level Cleveland Center
05:34PM 42.7208 -80.5492 266° West 342 394 28,000  Level Cleveland Center
05:35PM 42.7144 -80.6736 266° West 342 394 28,000 -420 Level Cleveland Center
05:36PM 42.7100 -80.8064 267° West 342 394 27,200 -900 Descending Cleveland Center
05:37PM 42.6994 -80.9364 264° West 352 405 26,200 -1,020 Descending Cleveland Center
05:38PM 42.6864 -81.0689 262° West 345 397 25,200 -1,020 Descending Cleveland Center
05:39PM 42.6669 -81.2242 260° West 401 461 24,200 -600 Descending Cleveland Center
05:40PM 42.6514 -81.3622 261° West 421 484 24,000 -120 Descending Cleveland Center
05:41PM 42.6336 -81.5231 262° West 426 490 24,000 -240 Level Cleveland Center
05:42PM 42.6156 -81.6722 261° West 416 479 23,600 -1,500 Descending Cleveland Center
05:43PM 42.5950 -81.8356 260° West 411 473 21,100 -5,820 Descending Cleveland Center
05:44PM 42.5789 -81.9817 262° West 406 467 12,000 -2,280 Descending Cleveland Center
05:45PM 42.5603 -82.1222 260° West 406 467 16,600 1,920 Climbing Cleveland Center
05:45PM 42.5528 -82.2122 264° West 369 425 15,200 -2,040 Descending Cleveland Center
05:46PM 42.5439 -82.2514 253° West 389 448 14,600 -1,980 Descending Cleveland Center
05:47PM 42.5294 -82.3781 261° West 367 422 12,600 -1,860 Descending Cleveland Center
05:47PM 42.5247 -82.4256 262° West 302 348 12,100 -600 Descending Cleveland Center
05:48PM 42.5153 -82.4844 258° West 334 384 12,000  Descending Cleveland Center
05:48PM 42.5106 -82.5239 261° West 251 289 12,100  Climbing Cleveland Center
05:49PM 42.4972 -82.5769 251° West 283 326 12,000 -540 Descending Cleveland Center
05:49PM 42.4858 -82.6189 250° West 267 307 11,600 -1,020 Descending Cleveland Center
05:50PM 42.4642 -82.6661 238° Southwest 268 308 11,000 -1,020 Descending Cleveland Center
05:50PM 42.4511 -82.7078 247° West 265 305 10,600 -900 Descending Cleveland Center
05:51PM 42.4314 -82.7550 241° Southwest 268 308 10,100 -1,140 Descending Cleveland Center
05:51PM 42.4242 -82.7997 258° West 260 299 9,500 -1,500 Descending Cleveland Center
05:52PM 42.4144 -82.8725 260° West 251 289 8,200 -1,560 Descending Cleveland Center
05:53PM 42.4028 -82.9367 256° West 257 296 7,100 -1,680 Descending Cleveland Center
05:53PM 42.4000 -82.9675 263° West 240 276 6,500 -1,140 Descending Cleveland Center
05:54PM 42.3906 -83.0264 258° West 257 296 6,000 -480 Descending Cleveland Center
05:54PM 42.3897 -83.0656 268° West 236 272 6,000 -420 Level Cleveland Center
05:55PM 42.3803 -83.1103 254° West 247 284 5,600 -1,380 Descending Cleveland Center
05:55PM 42.3753 -83.1522 261° West 229 264 4,600 -1,380 Descending Cleveland Center
05:56PM 42.3378 -83.2378 239° Southwest 209 241 3,400 -1,020 Descending Cleveland Center